sensor_id;sensor_type;location;lat;lon;timestamp;P1;durP1;ratioP1;P2;durP2;ratioP2
19347;SDS011;9810;52.480;9.806;2022-12-11T00:00:36;27.53;;;12.97;;
19347;SDS011;9810;52.480;9.806;2022-12-11T00:03:03;28.87;;;13.33;;
19347;SDS011;9810;52.480;9.806;2022-12-11T00:05:32;28.83;;;13.27;;
19347;SDS011;9810;52.480;9.806;2022-12-11T00:07:59;23.43;;;12.30;;
19347;SDS011;9810;52.480;9.806;2022-12-11T00:10:26;25.87;;;12.33;;
19347;SDS011;9810;52.480;9.806;2022-12-11T00:12:53;26.93;;;12.93;;
19347;SDS011;9810;52.480;9.806;2022-12-11T00:15:20;23.17;;;12.03;;
19347;SDS011;9810;52.480;9.806;2022-12-11T00:17:47;26.07;;;12.93;;
19347;SDS011;9810;52.480;9.806;2022-12-11T00:20:14;27.97;;;13.87;;
19347;SDS011;9810;52.480;9.806;2022-12-11T00:22:43;26.57;;;12.57;;
19347;SDS011;9810;52.480;9.806;2022-12-11T00:25:10;26.07;;;13.43;;
19347;SDS011;9810;52.480;9.806;2022-12-11T00:27:37;24.20;;;11.80;;
19347;SDS011;9810;52.480;9.806;2022-12-11T00:30:05;23.97;;;13.00;;
19347;SDS011;9810;52.480;9.806;2022-12-11T00:32:33;24.03;;;12.33;;
19347;SDS011;9810;52.480;9.806;2022-12-11T00:35:00;24.63;;;12.53;;
19347;SDS011;9810;52.480;9.806;2022-12-11T00:37:27;23.57;;;12.13;;
19347;SDS011;9810;52.480;9.806;2022-12-11T00:39:55;25.77;;;12.87;;
19347;SDS011;9810;52.480;9.806;2022-12-11T00:42:22;22.70;;;11.63;;
19347;SDS011;9810;52.480;9.806;2022-12-11T00:44:49;25.07;;;12.17;;
19347;SDS011;9810;52.480;9.806;2022-12-11T00:47:16;24.93;;;11.37;;
19347;SDS011;9810;52.480;9.806;2022-12-11T00:49:43;24.50;;;11.50;;
19347;SDS011;9810;52.480;9.806;2022-12-11T00:52:10;28.07;;;12.47;;
19347;SDS011;9810;52.480;9.806;2022-12-11T00:54:37;23.63;;;12.83;;
19347;SDS011;9810;52.480;9.806;2022-12-11T00:57:06;27.03;;;12.00;;
19347;SDS011;9810;52.480;9.806;2022-12-11T00:59:33;29.60;;;12.97;;
19347;SDS011;9810;52.480;9.806;2022-12-11T01:02:00;29.47;;;13.73;;
19347;SDS011;9810;52.480;9.806;2022-12-11T01:04:27;26.03;;;12.67;;
19347;SDS011;9810;52.480;9.806;2022-12-11T01:06:54;26.87;;;12.60;;
19347;SDS011;9810;52.480;9.806;2022-12-11T01:09:21;26.70;;;12.57;;
19347;SDS011;9810;52.480;9.806;2022-12-11T01:12:07;27.37;;;13.13;;
19347;SDS011;9810;52.480;9.806;2022-12-11T01:14:34;26.53;;;13.07;;
19347;SDS011;9810;52.480;9.806;2022-12-11T01:17:01;24.47;;;12.10;;
19347;SDS011;9810;52.480;9.806;2022-12-11T01:19:28;25.87;;;12.97;;
19347;SDS011;9810;52.480;9.806;2022-12-11T01:21:55;27.10;;;11.53;;
19347;SDS011;9810;52.480;9.806;2022-12-11T01:24:22;24.87;;;12.17;;
19347;SDS011;9810;52.480;9.806;2022-12-11T01:26:49;25.10;;;12.67;;
19347;SDS011;9810;52.480;9.806;2022-12-11T01:29:18;27.93;;;12.83;;
19347;SDS011;9810;52.480;9.806;2022-12-11T01:31:45;31.37;;;13.13;;
19347;SDS011;9810;52.480;9.806;2022-12-11T01:34:12;28.13;;;12.20;;
19347;SDS011;9810;52.480;9.806;2022-12-11T01:36:39;27.10;;;12.13;;
19347;SDS011;9810;52.480;9.806;2022-12-11T01:39:06;23.83;;;11.10;;
19347;SDS011;9810;52.480;9.806;2022-12-11T01:41:33;23.17;;;11.23;;
19347;SDS011;9810;52.480;9.806;2022-12-11T01:44:04;23.97;;;12.67;;
19347;SDS011;9810;52.480;9.806;2022-12-11T01:46:34;23.40;;;11.87;;
19347;SDS011;9810;52.480;9.806;2022-12-11T01:49:03;21.47;;;10.77;;
19347;SDS011;9810;52.480;9.806;2022-12-11T01:51:34;24.07;;;11.70;;
19347;SDS011;9810;52.480;9.806;2022-12-11T01:54:06;23.00;;;11.83;;
19347;SDS011;9810;52.480;9.806;2022-12-11T01:56:36;19.30;;;9.73;;
19347;SDS011;9810;52.480;9.806;2022-12-11T01:59:05;19.33;;;9.80;;
19347;SDS011;9810;52.480;9.806;2022-12-11T02:01:37;21.07;;;10.73;;
19347;SDS011;9810;52.480;9.806;2022-12-11T02:04:07;19.70;;;9.83;;
19347;SDS011;9810;52.480;9.806;2022-12-11T02:06:35;21.07;;;9.90;;
19347;SDS011;9810;52.480;9.806;2022-12-11T02:09:04;21.17;;;10.80;;
19347;SDS011;9810;52.480;9.806;2022-12-11T02:11:38;22.50;;;11.40;;
19347;SDS011;9810;52.480;9.806;2022-12-11T02:14:17;17.30;;;9.63;;
19347;SDS011;9810;52.480;9.806;2022-12-11T02:16:54;24.80;;;11.73;;
19347;SDS011;9810;52.480;9.806;2022-12-11T02:19:30;22.63;;;10.80;;
19347;SDS011;9810;52.480;9.806;2022-12-11T02:22:20;20.13;;;9.90;;
19347;SDS011;9810;52.480;9.806;2022-12-11T02:24:56;22.87;;;10.97;;
19347;SDS011;9810;52.480;9.806;2022-12-11T02:27:35;18.97;;;10.87;;
19347;SDS011;9810;52.480;9.806;2022-12-11T02:30:09;17.53;;;9.27;;
19347;SDS011;9810;52.480;9.806;2022-12-11T02:32:38;20.47;;;10.83;;
19347;SDS011;9810;52.480;9.806;2022-12-11T02:35:14;22.30;;;10.20;;
19347;SDS011;9810;52.480;9.806;2022-12-11T02:37:46;21.30;;;11.13;;
19347;SDS011;9810;52.480;9.806;2022-12-11T02:40:18;21.90;;;11.33;;
19347;SDS011;9810;52.480;9.806;2022-12-11T02:42:50;21.07;;;10.93;;
19347;SDS011;9810;52.480;9.806;2022-12-11T02:45:21;20.57;;;11.43;;
19347;SDS011;9810;52.480;9.806;2022-12-11T02:47:50;19.30;;;9.60;;
19347;SDS011;9810;52.480;9.806;2022-12-11T02:50:19;19.47;;;10.13;;
19347;SDS011;9810;52.480;9.806;2022-12-11T02:52:49;19.13;;;10.57;;
19347;SDS011;9810;52.480;9.806;2022-12-11T02:55:21;21.20;;;10.07;;
19347;SDS011;9810;52.480;9.806;2022-12-11T02:57:50;21.30;;;9.40;;
19347;SDS011;9810;52.480;9.806;2022-12-11T03:00:22;21.40;;;11.43;;
19347;SDS011;9810;52.480;9.806;2022-12-11T03:02:49;19.83;;;10.50;;
19347;SDS011;9810;52.480;9.806;2022-12-11T03:05:16;22.43;;;10.60;;
19347;SDS011;9810;52.480;9.806;2022-12-11T03:07:43;19.87;;;10.37;;
19347;SDS011;9810;52.480;9.806;2022-12-11T03:10:12;22.17;;;11.03;;
19347;SDS011;9810;52.480;9.806;2022-12-11T03:12:41;21.20;;;10.30;;
19347;SDS011;9810;52.480;9.806;2022-12-11T03:15:11;23.17;;;12.03;;
19347;SDS011;9810;52.480;9.806;2022-12-11T03:17:44;21.47;;;10.60;;
19347;SDS011;9810;52.480;9.806;2022-12-11T03:20:24;23.23;;;11.67;;
19347;SDS011;9810;52.480;9.806;2022-12-11T03:22:56;23.87;;;10.07;;
19347;SDS011;9810;52.480;9.806;2022-12-11T03:25:33;21.50;;;11.07;;
19347;SDS011;9810;52.480;9.806;2022-12-11T03:28:09;22.33;;;11.50;;
19347;SDS011;9810;52.480;9.806;2022-12-11T03:30:38;23.93;;;11.20;;
19347;SDS011;9810;52.480;9.806;2022-12-11T03:33:10;22.60;;;10.63;;
19347;SDS011;9810;52.480;9.806;2022-12-11T03:35:43;26.33;;;11.40;;
19347;SDS011;9810;52.480;9.806;2022-12-11T03:38:15;22.53;;;11.13;;
19347;SDS011;9810;52.480;9.806;2022-12-11T03:40:49;22.50;;;10.97;;
19347;SDS011;9810;52.480;9.806;2022-12-11T03:43:20;19.27;;;10.20;;
19347;SDS011;9810;52.480;9.806;2022-12-11T03:45:47;25.27;;;10.70;;
19347;SDS011;9810;52.480;9.806;2022-12-11T03:48:17;23.33;;;11.57;;
19347;SDS011;9810;52.480;9.806;2022-12-11T03:50:47;23.80;;;10.57;;
19347;SDS011;9810;52.480;9.806;2022-12-11T03:53:15;23.60;;;11.60;;
19347;SDS011;9810;52.480;9.806;2022-12-11T03:55:45;24.03;;;11.57;;
19347;SDS011;9810;52.480;9.806;2022-12-11T03:58:14;24.67;;;11.33;;
19347;SDS011;9810;52.480;9.806;2022-12-11T04:00:41;27.47;;;12.30;;
19347;SDS011;9810;52.480;9.806;2022-12-11T04:03:08;29.47;;;12.43;;
19347;SDS011;9810;52.480;9.806;2022-12-11T04:05:42;20.83;;;11.00;;
19347;SDS011;9810;52.480;9.806;2022-12-11T04:08:10;24.07;;;11.93;;
19347;SDS011;9810;52.480;9.806;2022-12-11T04:10:38;22.97;;;10.47;;
19347;SDS011;9810;52.480;9.806;2022-12-11T04:13:05;27.07;;;13.00;;
19347;SDS011;9810;52.480;9.806;2022-12-11T04:15:33;23.40;;;11.70;;
19347;SDS011;9810;52.480;9.806;2022-12-11T04:17:59;30.63;;;11.47;;
19347;SDS011;9810;52.480;9.806;2022-12-11T04:20:45;21.23;;;9.90;;
19347;SDS011;9810;52.480;9.806;2022-12-11T04:23:29;24.20;;;12.17;;
19347;SDS011;9810;52.480;9.806;2022-12-11T04:26:14;23.77;;;11.10;;
19347;SDS011;9810;52.480;9.806;2022-12-11T04:28:42;20.17;;;11.03;;
19347;SDS011;9810;52.480;9.806;2022-12-11T04:31:10;23.10;;;10.70;;
19347;SDS011;9810;52.480;9.806;2022-12-11T04:33:38;24.97;;;12.90;;
19347;SDS011;9810;52.480;9.806;2022-12-11T04:36:08;25.00;;;12.98;;
19347;SDS011;9810;52.480;9.806;2022-12-11T04:38:36;26.60;;;11.53;;
19347;SDS011;9810;52.480;9.806;2022-12-11T04:41:04;26.53;;;12.03;;
19347;SDS011;9810;52.480;9.806;2022-12-11T04:43:32;27.67;;;13.27;;
19347;SDS011;9810;52.480;9.806;2022-12-11T04:46:01;25.47;;;12.20;;
19347;SDS011;9810;52.480;9.806;2022-12-11T04:48:28;30.27;;;13.73;;
19347;SDS011;9810;52.480;9.806;2022-12-11T04:50:56;28.57;;;13.43;;
19347;SDS011;9810;52.480;9.806;2022-12-11T04:53:25;25.70;;;11.13;;
19347;SDS011;9810;52.480;9.806;2022-12-11T04:55:52;24.40;;;12.43;;
19347;SDS011;9810;52.480;9.806;2022-12-11T04:58:19;27.70;;;12.10;;
19347;SDS011;9810;52.480;9.806;2022-12-11T05:00:46;26.30;;;12.17;;
19347;SDS011;9810;52.480;9.806;2022-12-11T05:03:13;27.33;;;13.10;;
19347;SDS011;9810;52.480;9.806;2022-12-11T05:05:40;25.77;;;12.27;;
19347;SDS011;9810;52.480;9.806;2022-12-11T05:08:13;27.33;;;14.50;;
19347;SDS011;9810;52.480;9.806;2022-12-11T05:10:42;28.10;;;13.03;;
19347;SDS011;9810;52.480;9.806;2022-12-11T05:13:09;25.53;;;12.70;;
19347;SDS011;9810;52.480;9.806;2022-12-11T05:15:37;27.60;;;12.93;;
19347;SDS011;9810;52.480;9.806;2022-12-11T05:18:04;24.83;;;12.70;;
19347;SDS011;9810;52.480;9.806;2022-12-11T05:20:31;26.60;;;13.37;;
19347;SDS011;9810;52.480;9.806;2022-12-11T05:22:58;29.73;;;13.37;;
19347;SDS011;9810;52.480;9.806;2022-12-11T05:25:25;32.37;;;13.60;;
19347;SDS011;9810;52.480;9.806;2022-12-11T05:27:54;30.23;;;14.07;;
19347;SDS011;9810;52.480;9.806;2022-12-11T05:30:21;26.43;;;13.50;;
19347;SDS011;9810;52.480;9.806;2022-12-11T05:32:48;31.10;;;14.90;;
19347;SDS011;9810;52.480;9.806;2022-12-11T05:35:15;22.13;;;12.70;;
19347;SDS011;9810;52.480;9.806;2022-12-11T05:37:43;25.90;;;13.40;;
19347;SDS011;9810;52.480;9.806;2022-12-11T05:40:10;30.40;;;15.03;;
19347;SDS011;9810;52.480;9.806;2022-12-11T05:42:37;31.63;;;14.63;;
19347;SDS011;9810;52.480;9.806;2022-12-11T05:45:07;29.63;;;13.67;;
19347;SDS011;9810;52.480;9.806;2022-12-11T05:47:35;31.37;;;14.33;;
19347;SDS011;9810;52.480;9.806;2022-12-11T05:50:02;26.80;;;14.30;;
19347;SDS011;9810;52.480;9.806;2022-12-11T05:52:30;29.07;;;15.43;;
19347;SDS011;9810;52.480;9.806;2022-12-11T05:54:57;30.97;;;13.67;;
19347;SDS011;9810;52.480;9.806;2022-12-11T05:57:24;32.13;;;15.23;;
19347;SDS011;9810;52.480;9.806;2022-12-11T05:59:51;33.07;;;14.33;;
19347;SDS011;9810;52.480;9.806;2022-12-11T06:02:20;34.43;;;15.37;;
19347;SDS011;9810;52.480;9.806;2022-12-11T06:04:47;27.87;;;14.03;;
19347;SDS011;9810;52.480;9.806;2022-12-11T06:07:14;35.87;;;16.47;;
19347;SDS011;9810;52.480;9.806;2022-12-11T06:09:41;31.90;;;13.97;;
19347;SDS011;9810;52.480;9.806;2022-12-11T06:12:08;29.33;;;15.93;;
19347;SDS011;9810;52.480;9.806;2022-12-11T06:14:35;28.93;;;15.03;;
19347;SDS011;9810;52.480;9.806;2022-12-11T06:17:02;32.03;;;15.23;;
19347;SDS011;9810;52.480;9.806;2022-12-11T06:19:31;32.17;;;13.73;;
19347;SDS011;9810;52.480;9.806;2022-12-11T06:21:58;31.20;;;14.83;;
19347;SDS011;9810;52.480;9.806;2022-12-11T06:24:25;28.07;;;14.13;;
19347;SDS011;9810;52.480;9.806;2022-12-11T06:26:52;28.67;;;15.67;;
19347;SDS011;9810;52.480;9.806;2022-12-11T06:29:19;28.90;;;12.07;;
19347;SDS011;9810;52.480;9.806;2022-12-11T06:31:45;31.60;;;14.97;;
19347;SDS011;9810;52.480;9.806;2022-12-11T06:34:12;28.50;;;14.83;;
19347;SDS011;9810;52.480;9.806;2022-12-11T06:36:41;32.30;;;14.50;;
19347;SDS011;9810;52.480;9.806;2022-12-11T06:39:08;30.33;;;13.77;;
19347;SDS011;9810;52.480;9.806;2022-12-11T06:41:36;34.27;;;14.80;;
19347;SDS011;9810;52.480;9.806;2022-12-11T06:44:03;29.97;;;14.27;;
19347;SDS011;9810;52.480;9.806;2022-12-11T06:46:30;34.57;;;16.33;;
19347;SDS011;9810;52.480;9.806;2022-12-11T06:48:57;30.37;;;15.00;;
19347;SDS011;9810;52.480;9.806;2022-12-11T06:51:24;30.20;;;14.77;;
19347;SDS011;9810;52.480;9.806;2022-12-11T06:53:53;32.47;;;16.43;;
19347;SDS011;9810;52.480;9.806;2022-12-11T06:56:22;34.60;;;16.37;;
19347;SDS011;9810;52.480;9.806;2022-12-11T06:58:50;29.53;;;15.97;;
19347;SDS011;9810;52.480;9.806;2022-12-11T07:01:18;31.10;;;15.13;;
19347;SDS011;9810;52.480;9.806;2022-12-11T07:03:47;35.50;;;15.80;;
19347;SDS011;9810;52.480;9.806;2022-12-11T07:06:14;30.50;;;14.63;;
19347;SDS011;9810;52.480;9.806;2022-12-11T07:08:42;34.20;;;16.03;;
19347;SDS011;9810;52.480;9.806;2022-12-11T07:11:11;30.40;;;15.40;;
19347;SDS011;9810;52.480;9.806;2022-12-11T07:13:40;33.27;;;15.70;;
19347;SDS011;9810;52.480;9.806;2022-12-11T07:16:08;36.57;;;17.40;;
19347;SDS011;9810;52.480;9.806;2022-12-11T07:18:36;29.60;;;14.20;;
19347;SDS011;9810;52.480;9.806;2022-12-11T07:21:04;32.53;;;14.37;;
19347;SDS011;9810;52.480;9.806;2022-12-11T07:23:32;32.83;;;14.57;;
19347;SDS011;9810;52.480;9.806;2022-12-11T07:26:03;32.23;;;15.93;;
19347;SDS011;9810;52.480;9.806;2022-12-11T07:28:32;28.83;;;14.13;;
19347;SDS011;9810;52.480;9.806;2022-12-11T07:31:03;27.40;;;13.63;;
19347;SDS011;9810;52.480;9.806;2022-12-11T07:33:31;29.97;;;14.20;;
19347;SDS011;9810;52.480;9.806;2022-12-11T07:35:59;30.67;;;15.27;;
19347;SDS011;9810;52.480;9.806;2022-12-11T07:38:28;29.63;;;13.97;;
19347;SDS011;9810;52.480;9.806;2022-12-11T07:40:55;32.07;;;14.90;;
19347;SDS011;9810;52.480;9.806;2022-12-11T07:43:25;27.73;;;13.70;;
19347;SDS011;9810;52.480;9.806;2022-12-11T07:45:54;26.60;;;13.27;;
19347;SDS011;9810;52.480;9.806;2022-12-11T07:48:20;29.97;;;14.03;;
19347;SDS011;9810;52.480;9.806;2022-12-11T07:50:47;31.23;;;15.03;;
19347;SDS011;9810;52.480;9.806;2022-12-11T07:53:14;30.90;;;14.90;;
19347;SDS011;9810;52.480;9.806;2022-12-11T07:55:41;30.53;;;13.23;;
19347;SDS011;9810;52.480;9.806;2022-12-11T07:58:08;32.13;;;14.37;;
19347;SDS011;9810;52.480;9.806;2022-12-11T08:00:35;33.13;;;14.70;;
19347;SDS011;9810;52.480;9.806;2022-12-11T08:03:04;26.57;;;13.93;;
19347;SDS011;9810;52.480;9.806;2022-12-11T08:05:31;25.40;;;13.43;;
19347;SDS011;9810;52.480;9.806;2022-12-11T08:07:58;29.37;;;15.10;;
19347;SDS011;9810;52.480;9.806;2022-12-11T08:10:25;29.33;;;14.50;;
19347;SDS011;9810;52.480;9.806;2022-12-11T08:12:52;29.90;;;13.93;;
19347;SDS011;9810;52.480;9.806;2022-12-11T08:15:19;32.47;;;13.13;;
19347;SDS011;9810;52.480;9.806;2022-12-11T08:17:46;28.30;;;15.93;;
19347;SDS011;9810;52.480;9.806;2022-12-11T08:20:14;27.03;;;14.73;;
19347;SDS011;9810;52.480;9.806;2022-12-11T08:22:41;32.37;;;15.67;;
19347;SDS011;9810;52.480;9.806;2022-12-11T08:25:08;27.50;;;15.07;;
19347;SDS011;9810;52.480;9.806;2022-12-11T08:27:35;24.73;;;12.13;;
19347;SDS011;9810;52.480;9.806;2022-12-11T08:30:03;27.47;;;13.57;;
19347;SDS011;9810;52.480;9.806;2022-12-11T08:32:31;28.17;;;14.10;;
19347;SDS011;9810;52.480;9.806;2022-12-11T08:34:58;26.77;;;12.83;;
19347;SDS011;9810;52.480;9.806;2022-12-11T08:37:26;30.20;;;14.83;;
19347;SDS011;9810;52.480;9.806;2022-12-11T08:39:53;26.70;;;13.33;;
19347;SDS011;9810;52.480;9.806;2022-12-11T08:42:20;29.93;;;15.40;;
19347;SDS011;9810;52.480;9.806;2022-12-11T08:44:47;29.27;;;14.23;;
19347;SDS011;9810;52.480;9.806;2022-12-11T08:47:15;28.57;;;14.40;;
19347;SDS011;9810;52.480;9.806;2022-12-11T08:49:42;25.93;;;12.67;;
19347;SDS011;9810;52.480;9.806;2022-12-11T08:52:10;30.10;;;14.30;;
19347;SDS011;9810;52.480;9.806;2022-12-11T08:54:39;31.67;;;13.67;;
19347;SDS011;9810;52.480;9.806;2022-12-11T08:57:06;29.77;;;14.57;;
19347;SDS011;9810;52.480;9.806;2022-12-11T08:59:33;26.90;;;12.23;;
19347;SDS011;9810;52.480;9.806;2022-12-11T09:02:00;26.93;;;13.63;;
19347;SDS011;9810;52.480;9.806;2022-12-11T09:04:27;33.97;;;16.20;;
19347;SDS011;9810;52.480;9.806;2022-12-11T09:06:54;31.53;;;14.87;;
19347;SDS011;9810;52.480;9.806;2022-12-11T09:09:21;25.80;;;12.93;;
19347;SDS011;9810;52.480;9.806;2022-12-11T09:11:50;29.37;;;14.10;;
19347;SDS011;9810;52.480;9.806;2022-12-11T09:14:17;28.10;;;14.07;;
19347;SDS011;9810;52.480;9.806;2022-12-11T09:16:45;21.43;;;9.03;;
19347;SDS011;9810;52.480;9.806;2022-12-11T09:19:12;19.47;;;10.37;;
19347;SDS011;9810;52.480;9.806;2022-12-11T09:21:42;29.37;;;13.33;;
19347;SDS011;9810;52.480;9.806;2022-12-11T09:24:10;31.73;;;15.33;;
19347;SDS011;9810;52.480;9.806;2022-12-11T09:26:38;26.23;;;12.20;;
19347;SDS011;9810;52.480;9.806;2022-12-11T09:29:07;25.77;;;10.97;;
19347;SDS011;9810;52.480;9.806;2022-12-11T09:31:35;27.87;;;14.13;;
19347;SDS011;9810;52.480;9.806;2022-12-11T09:34:04;30.53;;;13.23;;
19347;SDS011;9810;52.480;9.806;2022-12-11T09:36:34;29.33;;;13.73;;
19347;SDS011;9810;52.480;9.806;2022-12-11T09:39:03;29.87;;;14.77;;
19347;SDS011;9810;52.480;9.806;2022-12-11T09:41:34;27.77;;;14.27;;
19347;SDS011;9810;52.480;9.806;2022-12-11T09:44:13;27.40;;;14.20;;
19347;SDS011;9810;52.480;9.806;2022-12-11T09:46:46;33.87;;;15.33;;
19347;SDS011;9810;52.480;9.806;2022-12-11T09:49:23;33.70;;;15.17;;
19347;SDS011;9810;52.480;9.806;2022-12-11T09:52:05;30.00;;;14.47;;
19347;SDS011;9810;52.480;9.806;2022-12-11T09:54:38;28.97;;;14.40;;
19347;SDS011;9810;52.480;9.806;2022-12-11T09:57:13;24.13;;;12.03;;
19347;SDS011;9810;52.480;9.806;2022-12-11T10:00:00;24.70;;;12.20;;
19347;SDS011;9810;52.480;9.806;2022-12-11T10:02:39;29.77;;;14.50;;
19347;SDS011;9810;52.480;9.806;2022-12-11T10:05:16;31.70;;;13.60;;
19347;SDS011;9810;52.480;9.806;2022-12-11T10:07:50;26.37;;;13.97;;
19347;SDS011;9810;52.480;9.806;2022-12-11T10:10:21;29.03;;;13.90;;
19347;SDS011;9810;52.480;9.806;2022-12-11T10:13:00;25.53;;;13.00;;
19347;SDS011;9810;52.480;9.806;2022-12-11T10:15:47;29.03;;;13.50;;
19347;SDS011;9810;52.480;9.806;2022-12-11T10:18:18;27.67;;;13.17;;
19347;SDS011;9810;52.480;9.806;2022-12-11T10:20:48;29.43;;;14.80;;
19347;SDS011;9810;52.480;9.806;2022-12-11T10:23:17;27.27;;;13.53;;
19347;SDS011;9810;52.480;9.806;2022-12-11T10:25:48;29.40;;;14.23;;
19347;SDS011;9810;52.480;9.806;2022-12-11T10:28:19;32.80;;;16.00;;
19347;SDS011;9810;52.480;9.806;2022-12-11T10:30:50;29.93;;;13.90;;
19347;SDS011;9810;52.480;9.806;2022-12-11T10:33:26;28.07;;;14.37;;
19347;SDS011;9810;52.480;9.806;2022-12-11T10:35:59;29.93;;;14.50;;
19347;SDS011;9810;52.480;9.806;2022-12-11T10:38:27;27.70;;;13.37;;
19347;SDS011;9810;52.480;9.806;2022-12-11T10:40:57;25.27;;;12.77;;
19347;SDS011;9810;52.480;9.806;2022-12-11T10:43:32;25.20;;;14.73;;
19347;SDS011;9810;52.480;9.806;2022-12-11T10:46:03;25.43;;;12.87;;
19347;SDS011;9810;52.480;9.806;2022-12-11T10:48:32;23.77;;;13.40;;
19347;SDS011;9810;52.480;9.806;2022-12-11T10:51:00;26.03;;;13.23;;
19347;SDS011;9810;52.480;9.806;2022-12-11T10:53:28;24.27;;;13.53;;
19347;SDS011;9810;52.480;9.806;2022-12-11T10:55:57;25.07;;;13.60;;
19347;SDS011;9810;52.480;9.806;2022-12-11T10:58:25;19.30;;;11.93;;
19347;SDS011;9810;52.480;9.806;2022-12-11T11:01:01;23.23;;;13.77;;
19347;SDS011;9810;52.480;9.806;2022-12-11T11:03:32;25.50;;;13.50;;
19347;SDS011;9810;52.480;9.806;2022-12-11T11:06:01;22.57;;;11.73;;
19347;SDS011;9810;52.480;9.806;2022-12-11T11:08:39;24.47;;;12.87;;
19347;SDS011;9810;52.480;9.806;2022-12-11T11:11:12;20.47;;;12.00;;
19347;SDS011;9810;52.480;9.806;2022-12-11T11:13:46;22.23;;;12.93;;
19347;SDS011;9810;52.480;9.806;2022-12-11T11:16:16;23.53;;;12.80;;
19347;SDS011;9810;52.480;9.806;2022-12-11T11:18:48;23.57;;;13.07;;
19347;SDS011;9810;52.480;9.806;2022-12-11T11:21:18;28.20;;;14.33;;
19347;SDS011;9810;52.480;9.806;2022-12-11T11:23:47;23.53;;;12.97;;
19347;SDS011;9810;52.480;9.806;2022-12-11T11:26:15;24.17;;;13.52;;
19347;SDS011;9810;52.480;9.806;2022-12-11T11:28:46;20.47;;;11.93;;
19347;SDS011;9810;52.480;9.806;2022-12-11T11:31:17;26.17;;;13.43;;
19347;SDS011;9810;52.480;9.806;2022-12-11T11:33:46;22.13;;;12.40;;
19347;SDS011;9810;52.480;9.806;2022-12-11T11:36:20;26.17;;;13.10;;
19347;SDS011;9810;52.480;9.806;2022-12-11T11:38:49;24.20;;;12.17;;
19347;SDS011;9810;52.480;9.806;2022-12-11T11:41:28;22.80;;;12.67;;
19347;SDS011;9810;52.480;9.806;2022-12-11T11:44:01;23.10;;;13.00;;
19347;SDS011;9810;52.480;9.806;2022-12-11T11:46:33;20.90;;;11.47;;
19347;SDS011;9810;52.480;9.806;2022-12-11T11:49:07;24.90;;;13.17;;
19347;SDS011;9810;52.480;9.806;2022-12-11T11:51:45;22.93;;;10.97;;
19347;SDS011;9810;52.480;9.806;2022-12-11T11:54:19;24.07;;;12.30;;
19347;SDS011;9810;52.480;9.806;2022-12-11T11:56:53;26.57;;;11.97;;
19347;SDS011;9810;52.480;9.806;2022-12-11T11:59:23;28.13;;;12.87;;
19347;SDS011;9810;52.480;9.806;2022-12-11T12:01:55;20.47;;;10.07;;
19347;SDS011;9810;52.480;9.806;2022-12-11T12:04:23;24.70;;;12.07;;
19347;SDS011;9810;52.480;9.806;2022-12-11T12:06:56;23.83;;;11.83;;
19347;SDS011;9810;52.480;9.806;2022-12-11T12:09:39;26.03;;;11.37;;
19347;SDS011;9810;52.480;9.806;2022-12-11T12:12:15;22.50;;;11.30;;
19347;SDS011;9810;52.480;9.806;2022-12-11T12:14:52;21.70;;;11.77;;
19347;SDS011;9810;52.480;9.806;2022-12-11T12:17:31;23.80;;;11.43;;
19347;SDS011;9810;52.480;9.806;2022-12-11T12:20:09;21.47;;;10.67;;
19347;SDS011;9810;52.480;9.806;2022-12-11T12:22:50;24.77;;;12.23;;
19347;SDS011;9810;52.480;9.806;2022-12-11T12:25:27;27.40;;;13.47;;
19347;SDS011;9810;52.480;9.806;2022-12-11T12:28:03;26.13;;;13.17;;
19347;SDS011;9810;52.480;9.806;2022-12-11T12:30:43;28.93;;;13.60;;
19347;SDS011;9810;52.480;9.806;2022-12-11T12:33:39;24.37;;;12.10;;
19347;SDS011;9810;52.480;9.806;2022-12-11T12:36:17;28.33;;;11.67;;
19347;SDS011;9810;52.480;9.806;2022-12-11T12:38:51;23.60;;;11.47;;
19347;SDS011;9810;52.480;9.806;2022-12-11T12:41:21;23.70;;;12.43;;
19347;SDS011;9810;52.480;9.806;2022-12-11T12:43:58;26.17;;;11.83;;
19347;SDS011;9810;52.480;9.806;2022-12-11T12:46:37;25.77;;;12.67;;
19347;SDS011;9810;52.480;9.806;2022-12-11T12:49:24;22.83;;;11.93;;
19347;SDS011;9810;52.480;9.806;2022-12-11T12:52:04;27.67;;;12.43;;
19347;SDS011;9810;52.480;9.806;2022-12-11T12:54:36;24.33;;;12.50;;
19347;SDS011;9810;52.480;9.806;2022-12-11T12:57:05;26.13;;;12.30;;
19347;SDS011;9810;52.480;9.806;2022-12-11T12:59:32;26.40;;;13.17;;
19347;SDS011;9810;52.480;9.806;2022-12-11T13:02:00;25.87;;;15.07;;
19347;SDS011;9810;52.480;9.806;2022-12-11T13:04:36;26.47;;;12.37;;
19347;SDS011;9810;52.480;9.806;2022-12-11T13:07:10;22.47;;;11.47;;
19347;SDS011;9810;52.480;9.806;2022-12-11T13:09:41;23.87;;;11.53;;
19347;SDS011;9810;52.480;9.806;2022-12-11T13:12:12;21.03;;;12.10;;
19347;SDS011;9810;52.480;9.806;2022-12-11T13:14:40;25.10;;;12.70;;
19347;SDS011;9810;52.480;9.806;2022-12-11T13:17:23;24.40;;;11.10;;
19347;SDS011;9810;52.480;9.806;2022-12-11T13:20:10;20.53;;;10.23;;
19347;SDS011;9810;52.480;9.806;2022-12-11T13:22:47;26.40;;;12.80;;
19347;SDS011;9810;52.480;9.806;2022-12-11T13:25:18;19.67;;;9.63;;
19347;SDS011;9810;52.480;9.806;2022-12-11T13:27:47;21.90;;;11.57;;
19347;SDS011;9810;52.480;9.806;2022-12-11T13:30:21;23.13;;;11.33;;
19347;SDS011;9810;52.480;9.806;2022-12-11T13:32:53;22.13;;;11.50;;
19347;SDS011;9810;52.480;9.806;2022-12-11T13:35:30;27.77;;;12.77;;
19347;SDS011;9810;52.480;9.806;2022-12-11T13:38:00;22.20;;;11.13;;
19347;SDS011;9810;52.480;9.806;2022-12-11T13:40:36;23.57;;;11.40;;
19347;SDS011;9810;52.480;9.806;2022-12-11T13:43:06;23.97;;;11.90;;
19347;SDS011;9810;52.480;9.806;2022-12-11T13:45:42;25.37;;;11.93;;
19347;SDS011;9810;52.480;9.806;2022-12-11T13:48:16;23.53;;;10.53;;
19347;SDS011;9810;52.480;9.806;2022-12-11T13:50:49;23.07;;;10.87;;
19347;SDS011;9810;52.480;9.806;2022-12-11T13:53:17;17.83;;;9.00;;
19347;SDS011;9810;52.480;9.806;2022-12-11T13:55:45;19.63;;;9.60;;
19347;SDS011;9810;52.480;9.806;2022-12-11T13:58:22;19.80;;;8.90;;
19347;SDS011;9810;52.480;9.806;2022-12-11T14:01:01;18.90;;;9.13;;
19347;SDS011;9810;52.480;9.806;2022-12-11T14:03:32;21.03;;;9.70;;
19347;SDS011;9810;52.480;9.806;2022-12-11T14:06:02;21.00;;;9.23;;
19347;SDS011;9810;52.480;9.806;2022-12-11T14:08:30;24.50;;;11.77;;
19347;SDS011;9810;52.480;9.806;2022-12-11T14:11:01;19.30;;;9.10;;
19347;SDS011;9810;52.480;9.806;2022-12-11T14:13:30;20.50;;;10.60;;
19347;SDS011;9810;52.480;9.806;2022-12-11T14:16:00;21.60;;;10.73;;
19347;SDS011;9810;52.480;9.806;2022-12-11T14:18:28;25.77;;;11.37;;
19347;SDS011;9810;52.480;9.806;2022-12-11T14:20:58;21.70;;;10.13;;
19347;SDS011;9810;52.480;9.806;2022-12-11T14:23:32;19.97;;;9.77;;
19347;SDS011;9810;52.480;9.806;2022-12-11T14:26:01;22.63;;;10.87;;
19347;SDS011;9810;52.480;9.806;2022-12-11T14:28:35;22.00;;;11.20;;
19347;SDS011;9810;52.480;9.806;2022-12-11T14:31:04;18.07;;;9.30;;
19347;SDS011;9810;52.480;9.806;2022-12-11T14:33:33;23.63;;;10.90;;
19347;SDS011;9810;52.480;9.806;2022-12-11T14:36:03;22.87;;;10.47;;
19347;SDS011;9810;52.480;9.806;2022-12-11T14:38:34;22.73;;;10.87;;
19347;SDS011;9810;52.480;9.806;2022-12-11T14:41:05;21.00;;;10.97;;
19347;SDS011;9810;52.480;9.806;2022-12-11T14:43:40;26.93;;;11.90;;
19347;SDS011;9810;52.480;9.806;2022-12-11T14:46:14;22.33;;;11.13;;
19347;SDS011;9810;52.480;9.806;2022-12-11T14:48:44;25.90;;;11.33;;
19347;SDS011;9810;52.480;9.806;2022-12-11T14:51:14;24.73;;;12.13;;
19347;SDS011;9810;52.480;9.806;2022-12-11T14:53:45;24.30;;;10.73;;